createdAt,value
2022-10-23T00:01:44.597Z,39.88
2022-10-23T00:04:47.680Z,40.08
2022-10-23T00:07:52.120Z,39.95
2022-10-23T00:10:55.307Z,39.80
2022-10-23T00:14:01.620Z,39.81
2022-10-23T00:17:04.851Z,40.13
2022-10-23T00:20:09.573Z,40.07
2022-10-23T00:23:12.766Z,39.82
2022-10-23T00:26:16.080Z,39.85
2022-10-23T00:29:20.494Z,40.11
2022-10-23T00:32:23.739Z,40.20
2022-10-23T00:35:27.087Z,40.10
2022-10-23T00:38:30.152Z,40.11
2022-10-23T00:41:33.431Z,39.96
2022-10-23T00:45:10.603Z,40.04
2022-10-23T00:48:15.677Z,39.81
2022-10-23T00:51:19.127Z,39.90
2022-10-23T00:54:26.694Z,39.91
2022-10-23T00:57:29.861Z,39.80
2022-10-23T01:00:44.253Z,40.09
2022-10-23T01:03:50.009Z,40.08
2022-10-23T01:07:04.871Z,40.06
2022-10-23T01:10:15.149Z,40.03
2022-10-23T01:13:27.581Z,40.04
2022-10-23T01:16:39.088Z,39.92
2022-10-23T01:19:56.878Z,40.14
2022-10-23T01:23:32.178Z,39.93
2022-10-23T01:26:45.539Z,39.83
2022-10-23T01:29:59.189Z,40.13
2022-10-23T01:33:08.273Z,39.83
2022-10-23T01:36:15.354Z,40.02
2022-10-23T01:39:22.100Z,39.93
2022-10-23T01:42:30.403Z,40.08
2022-10-23T01:45:41.049Z,40.02
2022-10-23T01:48:49.393Z,40.14
2022-10-23T01:51:56.207Z,39.98
2022-10-23T01:55:02.340Z,39.98
2022-10-23T01:58:08.533Z,40.00
2022-10-23T02:01:14.884Z,39.99
2022-10-23T02:04:24.882Z,40.15
2022-10-23T02:07:28.379Z,40.10
2022-10-23T02:10:36.130Z,40.06
2022-10-23T02:13:45.353Z,40.29
2022-10-23T02:16:53.075Z,40.01
2022-10-23T02:20:01.676Z,40.01
2022-10-23T02:23:18.060Z,40.23
2022-10-23T02:26:25.751Z,40.25
2022-10-23T02:29:35.026Z,39.96
2022-10-23T02:32:45.926Z,40.04
2022-10-23T02:35:50.070Z,39.99
2022-10-23T02:38:53.284Z,39.98
2022-10-23T02:42:04.025Z,40.14
2022-10-23T02:45:13.267Z,40.15
2022-10-23T02:48:23.923Z,40.17
2022-10-23T02:51:36.285Z,39.95
2022-10-23T02:54:52.161Z,40.14
2022-10-23T02:58:04.403Z,40.05
2022-10-23T03:01:12.626Z,39.91
2022-10-23T03:04:18.693Z,40.11
2022-10-23T03:07:22.372Z,40.17
2022-10-23T03:10:25.527Z,39.99
2022-10-23T03:13:28.574Z,40.06
2022-10-23T03:16:31.656Z,40.25
2022-10-23T03:19:36.375Z,40.06
2022-10-23T03:22:40.199Z,40.09
2022-10-23T03:25:43.551Z,40.39
2022-10-23T03:28:46.704Z,40.25
2022-10-23T03:31:49.955Z,39.99
2022-10-23T03:34:54.500Z,40.18
2022-10-23T03:37:57.615Z,39.95
2022-10-23T03:41:00.816Z,40.18
2022-10-23T03:47:10.039Z,39.79
2022-10-23T03:50:14.839Z,40.25
2022-10-23T03:53:18.300Z,39.88
2022-10-23T03:56:21.380Z,40.03
2022-10-23T03:59:24.580Z,40.09
2022-10-23T04:02:28.583Z,40.03
2022-10-23T04:05:34.296Z,40.08
2022-10-23T04:08:37.598Z,40.15
2022-10-23T04:11:41.456Z,40.00
2022-10-23T04:14:44.725Z,39.96
2022-10-23T04:17:47.816Z,40.51
2022-10-23T04:20:53.341Z,40.02
2022-10-23T04:23:56.378Z,40.04
2022-10-23T04:26:59.516Z,40.01
2022-10-23T04:30:03.790Z,39.97
2022-10-23T04:33:06.835Z,40.15
2022-10-23T04:36:11.600Z,40.15
2022-10-23T04:39:14.754Z,39.98
2022-10-23T04:42:18.192Z,40.07
2022-10-23T04:45:21.597Z,39.80
2022-10-23T04:48:27.011Z,40.38
2022-10-23T04:51:34.095Z,40.15
2022-10-23T04:54:38.475Z,40.09
2022-10-23T04:57:41.862Z,40.14
2022-10-23T05:00:45.055Z,40.20
2022-10-23T05:03:48.304Z,40.12
2022-10-23T05:06:53.604Z,40.32
2022-10-23T05:09:58.675Z,39.88
2022-10-23T05:13:01.828Z,39.68
2022-10-23T05:16:04.994Z,40.10
2022-10-23T05:19:12.139Z,40.12
2022-10-23T05:22:17.062Z,40.05
2022-10-23T05:25:20.350Z,40.26
2022-10-23T05:28:23.466Z,40.03
2022-10-23T05:31:26.806Z,40.23
2022-10-23T05:34:33.196Z,40.08
2022-10-23T05:37:39.623Z,40.19
2022-10-23T05:40:42.968Z,40.16
2022-10-23T05:43:48.590Z,40.03
2022-10-23T05:46:51.720Z,40.06
2022-10-23T05:49:54.824Z,40.01
2022-10-23T05:52:59.455Z,39.92
2022-10-23T05:56:06.918Z,40.05
2022-10-23T05:59:10.900Z,40.06
2022-10-23T06:02:14.161Z,39.83
2022-10-23T06:05:17.326Z,39.84
2022-10-23T06:08:21.810Z,39.78
2022-10-23T06:11:25.312Z,40.07
2022-10-23T06:14:28.576Z,39.97
2022-10-23T06:17:31.847Z,40.02
2022-10-23T06:20:37.987Z,39.81
2022-10-23T06:23:43.969Z,39.84
2022-10-23T06:26:47.762Z,39.81
2022-10-23T06:29:51.376Z,40.14
2022-10-23T06:32:55.663Z,39.89
2022-10-23T06:35:58.786Z,40.46
2022-10-23T06:39:03.760Z,40.03
2022-10-23T06:42:07.320Z,40.15
2022-10-23T06:45:10.746Z,39.70
2022-10-23T06:48:13.940Z,39.38
2022-10-23T06:51:18.800Z,39.06
2022-10-23T06:54:23.280Z,38.83
2022-10-23T06:57:26.424Z,39.02
2022-10-23T07:00:29.723Z,38.54
2022-10-23T07:03:34.337Z,38.88
2022-10-23T07:06:37.390Z,38.92
2022-10-23T07:09:42.464Z,38.38
2022-10-23T07:12:47.807Z,38.80
2022-10-23T07:15:50.932Z,38.76
2022-10-23T07:18:59.839Z,38.89
2022-10-23T07:22:02.934Z,38.24
2022-10-23T07:25:08.926Z,38.64
2022-10-23T07:28:12.195Z,38.64
2022-10-23T07:31:18.463Z,38.34
2022-10-23T07:34:21.942Z,38.25
2022-10-23T07:37:25.355Z,38.53
2022-10-23T07:40:30.045Z,38.45
2022-10-23T07:43:34.215Z,38.22
2022-10-23T07:46:37.751Z,38.47
2022-10-23T07:49:40.957Z,37.91
2022-10-23T07:52:44.344Z,38.03
2022-10-23T07:55:55.202Z,38.32
2022-10-23T07:58:58.767Z,38.19
2022-10-23T08:02:02.054Z,38.04
2022-10-23T08:05:05.638Z,38.17
2022-10-23T08:08:08.776Z,38.53
2022-10-23T08:11:15.490Z,38.35
2022-10-23T08:14:18.621Z,37.96
2022-10-23T08:17:24.058Z,38.20
2022-10-23T08:20:30.685Z,38.58
2022-10-23T08:23:34.123Z,38.69
2022-10-23T08:26:38.970Z,38.29
2022-10-23T08:29:42.078Z,38.54
2022-10-23T08:32:45.176Z,38.31
2022-10-23T08:35:48.420Z,38.87
2022-10-23T08:38:53.705Z,38.71
2022-10-23T08:41:59.047Z,38.59
2022-10-23T08:45:07.929Z,38.47
2022-10-23T08:48:19.982Z,38.75
2022-10-23T08:51:26.668Z,38.95
2022-10-23T08:54:35.286Z,38.75
2022-10-23T08:57:44.982Z,38.74
2022-10-23T09:00:50.752Z,39.01
2022-10-23T09:03:53.930Z,38.91
2022-10-23T09:07:06.665Z,39.16
2022-10-23T09:10:31.067Z,38.73
2022-10-23T09:13:59.393Z,38.95
2022-10-23T09:17:15.978Z,39.25
2022-10-23T09:20:22.508Z,39.23
2022-10-23T09:23:26.086Z,38.68
2022-10-23T09:26:29.185Z,38.92
2022-10-23T09:29:36.188Z,38.67
2022-10-23T09:32:40.063Z,39.17
2022-10-23T09:35:54.678Z,38.91
2022-10-23T09:39:00.122Z,38.84
2022-10-23T09:42:16.046Z,38.63
2022-10-23T09:45:29.805Z,39.00
2022-10-23T09:48:33.899Z,38.88
2022-10-23T09:51:37.136Z,38.86
2022-10-23T09:54:46.607Z,38.95
2022-10-23T09:57:50.689Z,39.03
2022-10-23T10:00:55.814Z,38.80
2022-10-23T10:03:58.998Z,39.08
2022-10-23T10:07:03.667Z,39.52
2022-10-23T10:10:15.084Z,40.21
2022-10-23T10:13:37.394Z,40.07
2022-10-23T10:16:52.461Z,41.12
2022-10-23T10:20:18.352Z,40.23
2022-10-23T10:23:33.290Z,40.82
2022-10-23T10:26:44.860Z,41.09
2022-10-23T10:30:03.017Z,41.87
2022-10-23T10:33:18.790Z,42.52
2022-10-23T10:36:42.126Z,43.13
2022-10-23T10:39:53.983Z,44.75
2022-10-23T10:43:21.968Z,44.91
2022-10-23T10:46:32.512Z,44.46
2022-10-23T10:49:41.892Z,44.40
2022-10-23T10:52:54.366Z,43.87
2022-10-23T10:56:01.398Z,43.62
2022-10-23T10:59:12.231Z,43.24
2022-10-23T11:02:27.071Z,44.30
2022-10-23T11:05:50.655Z,43.17
2022-10-23T11:09:04.010Z,44.14
2022-10-23T11:12:20.766Z,44.43
2022-10-23T11:15:29.935Z,44.15
2022-10-23T11:18:35.127Z,43.39
2022-10-23T11:21:45.138Z,42.91
2022-10-23T11:25:09.710Z,43.15
2022-10-23T11:28:27.647Z,42.42
2022-10-23T11:31:40.396Z,42.23
2022-10-23T11:35:12.854Z,42.55
2022-10-23T11:38:21.422Z,42.50
2022-10-23T11:41:27.395Z,42.22
2022-10-23T11:44:43.226Z,41.98
2022-10-23T11:47:46.335Z,42.42
2022-10-23T11:50:55.076Z,42.45
2022-10-23T11:54:27.337Z,42.33
2022-10-23T12:00:37.071Z,42.03
2022-10-23T12:03:52.011Z,42.33
2022-10-23T12:07:00.000Z,42.20
2022-10-23T12:10:07.482Z,42.41
2022-10-23T12:13:30.500Z,41.92
2022-10-23T12:16:37.830Z,42.04
2022-10-23T12:19:49.194Z,41.98
2022-10-23T12:23:04.344Z,41.68
2022-10-23T12:26:43.732Z,41.47
2022-10-23T12:30:04.049Z,41.69
2022-10-23T12:33:17.118Z,41.79
2022-10-23T12:36:52.875Z,41.58
2022-10-23T12:39:57.244Z,41.59
2022-10-23T12:43:03.008Z,42.03
2022-10-23T12:46:19.499Z,42.20
2022-10-23T12:49:25.131Z,42.12
2022-10-23T12:52:28.236Z,42.36
2022-10-23T12:55:47.786Z,42.59
2022-10-23T12:58:55.547Z,42.72
2022-10-23T13:01:58.761Z,43.12
2022-10-23T13:05:04.652Z,43.29
2022-10-23T13:08:10.995Z,42.79
2022-10-23T13:11:18.159Z,43.21
2022-10-23T13:14:39.449Z,43.60
2022-10-23T13:17:47.361Z,43.28
2022-10-23T13:20:59.530Z,43.78
2022-10-23T13:24:02.796Z,44.30
2022-10-23T13:27:26.975Z,43.86
2022-10-23T13:30:34.626Z,43.98
2022-10-23T13:33:40.144Z,44.21
2022-10-23T13:36:53.672Z,44.30
2022-10-23T13:40:04.714Z,44.17
2022-10-23T13:43:15.795Z,44.03
2022-10-23T13:46:21.582Z,43.90
2022-10-23T13:49:24.647Z,44.51
2022-10-23T13:52:27.812Z,44.26
2022-10-23T13:55:31.003Z,44.23
2022-10-23T13:58:34.053Z,44.24
2022-10-23T14:01:38.777Z,43.93
2022-10-23T14:04:41.955Z,44.16
2022-10-23T14:07:45.281Z,44.23
2022-10-23T14:10:48.682Z,44.42
2022-10-23T14:13:52.822Z,44.48
2022-10-23T14:16:57.624Z,44.63
2022-10-23T14:20:02.209Z,44.76
2022-10-23T14:23:08.268Z,44.57
2022-10-23T14:26:14.525Z,44.60
2022-10-23T14:29:22.897Z,44.76
2022-10-23T14:32:28.443Z,44.59
2022-10-23T14:35:31.587Z,44.51
2022-10-23T14:38:34.695Z,44.33
2022-10-23T14:41:40.489Z,44.67
2022-10-23T14:44:45.059Z,44.43
2022-10-23T14:47:49.997Z,44.60
2022-10-23T14:50:53.492Z,44.61
2022-10-23T14:54:00.875Z,44.51
2022-10-23T14:57:04.955Z,44.50
2022-10-23T15:00:09.291Z,44.14
2022-10-23T15:03:13.807Z,44.44
2022-10-23T15:06:18.356Z,44.75
2022-10-23T15:09:21.639Z,44.16
2022-10-23T15:12:25.579Z,43.68
2022-10-23T15:15:28.652Z,43.29
2022-10-23T15:18:33.943Z,43.48
2022-10-23T15:21:37.386Z,43.23
2022-10-23T15:24:40.483Z,43.74
2022-10-23T15:27:44.095Z,43.45
2022-10-23T15:30:47.398Z,43.37
2022-10-23T15:33:51.916Z,43.63
2022-10-23T15:36:56.075Z,43.72
2022-10-23T15:40:04.954Z,44.01
2022-10-23T15:43:11.310Z,43.61
2022-10-23T15:46:16.012Z,44.16
2022-10-23T15:49:22.465Z,43.99
2022-10-23T15:52:25.818Z,43.84
2022-10-23T15:55:29.254Z,43.92
2022-10-23T15:58:32.393Z,43.86
2022-10-23T16:01:35.644Z,44.17
2022-10-23T16:04:40.468Z,43.98
2022-10-23T16:07:43.680Z,43.50
2022-10-23T16:10:46.745Z,43.55
2022-10-23T16:13:49.847Z,43.82
2022-10-23T16:16:53.390Z,43.49
2022-10-23T16:19:57.809Z,43.44
2022-10-23T16:23:01.077Z,43.51
2022-10-23T16:26:05.606Z,43.61
2022-10-23T16:29:10.475Z,43.57
2022-10-23T16:32:13.651Z,43.62
2022-10-23T16:35:18.300Z,44.10
2022-10-23T16:38:21.309Z,43.93
2022-10-23T16:41:24.437Z,43.62
2022-10-23T16:44:27.895Z,44.05
2022-10-23T16:47:33.071Z,44.36
2022-10-23T16:53:48.571Z,44.92
2022-10-23T16:56:52.294Z,44.50
2022-10-23T16:59:55.384Z,44.67
2022-10-23T17:02:58.655Z,44.50
2022-10-23T17:06:07.364Z,44.77
2022-10-23T17:09:13.563Z,44.56
2022-10-23T17:12:17.812Z,44.44
2022-10-23T17:15:21.719Z,44.68
2022-10-23T17:18:24.999Z,44.90
2022-10-23T17:21:33.955Z,44.75
2022-10-23T17:24:53.174Z,44.94
2022-10-23T17:27:57.551Z,44.90
2022-10-23T17:31:01.620Z,44.88
2022-10-23T17:34:07.046Z,44.77
2022-10-23T17:37:13.380Z,45.07
2022-10-23T17:40:17.992Z,44.95
2022-10-23T17:43:24.983Z,44.77
2022-10-23T17:46:29.359Z,44.70
2022-10-23T17:49:32.441Z,44.83
2022-10-23T17:52:37.790Z,44.68
2022-10-23T17:55:42.605Z,44.89
2022-10-23T17:58:47.018Z,44.53
2022-10-23T18:01:50.945Z,44.80
2022-10-23T18:04:54.153Z,44.58
2022-10-23T18:07:58.622Z,44.45
2022-10-23T18:11:04.419Z,44.77
2022-10-23T18:14:08.209Z,44.85
2022-10-23T18:17:11.923Z,45.00
2022-10-23T18:20:16.379Z,44.53
2022-10-23T18:23:21.147Z,45.07
2022-10-23T18:26:27.563Z,44.65
2022-10-23T18:29:31.794Z,44.74
2022-10-23T18:32:34.974Z,44.60
2022-10-23T18:35:38.055Z,44.75
2022-10-23T18:38:43.100Z,45.22
2022-10-23T18:41:47.481Z,45.06
2022-10-23T18:44:52.437Z,44.70
2022-10-23T18:47:57.514Z,44.64
2022-10-23T18:51:00.887Z,45.16
2022-10-23T18:54:07.552Z,44.67
2022-10-23T18:57:10.843Z,44.58
2022-10-23T19:00:15.080Z,44.66
2022-10-23T19:03:18.153Z,44.77
2022-10-23T19:06:22.483Z,44.87
2022-10-23T19:09:26.917Z,44.92
2022-10-23T19:12:30.459Z,44.84
2022-10-23T19:15:34.857Z,44.71
2022-10-23T19:18:39.112Z,45.09
2022-10-23T19:21:43.689Z,45.29
2022-10-23T19:24:52.043Z,44.88
2022-10-23T19:27:57.120Z,44.79
2022-10-23T19:31:01.817Z,44.81
2022-10-23T19:34:04.861Z,45.06
2022-10-23T19:37:08.294Z,44.87
2022-10-23T19:40:16.767Z,45.12
2022-10-23T19:43:20.239Z,45.10
2022-10-23T19:46:23.639Z,44.34
2022-10-23T19:49:26.821Z,44.22
2022-10-23T19:52:30.137Z,43.81
2022-10-23T19:55:35.891Z,43.54
2022-10-23T19:58:39.221Z,43.32
2022-10-23T20:01:46.321Z,43.33
2022-10-23T20:04:52.540Z,43.74
2022-10-23T20:07:56.444Z,43.32
2022-10-23T20:11:03.615Z,43.33
2022-10-23T20:14:10.639Z,43.29
2022-10-23T20:17:13.794Z,43.21
2022-10-23T20:20:17.232Z,43.20
2022-10-23T20:23:20.457Z,43.43
2022-10-23T20:26:25.209Z,43.27
2022-10-23T20:29:28.227Z,43.43
2022-10-23T20:32:31.239Z,43.16
2022-10-23T20:35:39.555Z,42.80
2022-10-23T20:38:42.641Z,42.92
2022-10-23T20:41:47.387Z,43.15
2022-10-23T20:44:50.526Z,43.00
2022-10-23T20:47:56.128Z,43.03
2022-10-23T20:51:04.029Z,43.02
2022-10-23T20:54:07.845Z,43.13
2022-10-23T20:57:14.166Z,43.02
2022-10-23T21:00:19.159Z,42.70
2022-10-23T21:03:22.570Z,42.98
2022-10-23T21:06:27.251Z,42.57
2022-10-23T21:09:31.324Z,42.60
2022-10-23T21:12:35.893Z,42.63
2022-10-23T21:15:39.232Z,42.64
2022-10-23T21:18:46.892Z,42.69
2022-10-23T21:21:50.319Z,42.88
2022-10-23T21:24:55.102Z,42.58
2022-10-23T21:27:59.656Z,42.66
2022-10-23T21:31:08.045Z,42.52
2022-10-23T21:37:15.226Z,43.06
2022-10-23T21:40:18.986Z,42.81
2022-10-23T21:43:23.446Z,42.72
2022-10-23T21:46:28.037Z,42.69
2022-10-23T21:49:31.105Z,42.68
2022-10-23T21:52:34.346Z,42.56
2022-10-23T21:55:37.893Z,42.56
2022-10-23T21:58:42.530Z,42.62
2022-10-23T22:01:47.651Z,42.63
2022-10-23T22:04:51.187Z,42.82
2022-10-23T22:07:57.370Z,42.64
2022-10-23T22:11:00.421Z,42.62
2022-10-23T22:14:05.009Z,42.43
2022-10-23T22:17:08.145Z,42.41
2022-10-23T22:20:12.874Z,42.55
2022-10-23T22:23:16.198Z,42.61
2022-10-23T22:26:25.131Z,42.50
2022-10-23T22:29:31.150Z,42.58
2022-10-23T22:32:35.717Z,42.65
2022-10-23T22:35:38.804Z,42.78
2022-10-23T22:38:42.293Z,42.47
2022-10-23T22:41:45.392Z,42.43
2022-10-23T22:44:50.162Z,42.45
2022-10-23T22:47:53.356Z,42.67
2022-10-23T22:50:57.262Z,42.33
2022-10-23T22:54:01.658Z,42.32
2022-10-23T22:57:05.040Z,42.22
2022-10-23T23:00:10.530Z,42.33
2022-10-23T23:03:13.787Z,42.70
2022-10-23T23:06:17.718Z,42.47
2022-10-23T23:09:20.814Z,42.12
2022-10-23T23:12:24.058Z,42.54
2022-10-23T23:15:29.388Z,42.67
2022-10-23T23:18:33.574Z,42.49
2022-10-23T23:21:36.646Z,42.41
2022-10-23T23:24:40.229Z,42.23
2022-10-23T23:27:44.204Z,42.57
2022-10-23T23:30:49.847Z,42.37
2022-10-23T23:33:53.818Z,42.48
2022-10-23T23:36:57.909Z,42.25
2022-10-23T23:40:01.056Z,42.24
2022-10-23T23:43:04.450Z,42.34
2022-10-23T23:46:09.316Z,42.62
2022-10-23T23:49:12.837Z,42.40
2022-10-23T23:52:16.194Z,42.24
2022-10-23T23:55:21.399Z,42.46
2022-10-23T23:58:24.771Z,42.33
